sensor_id;sensor_type;location;lat;lon;timestamp;temperature;humidity
44627;DHT22;30333;52.192;8.834;2022-08-19T00:02:09;19.40;99.90
44627;DHT22;30333;52.192;8.834;2022-08-19T00:04:36;19.40;99.90
44627;DHT22;30333;52.192;8.834;2022-08-19T00:07:04;19.40;99.90
44627;DHT22;30333;52.192;8.834;2022-08-19T00:09:31;19.30;99.90
44627;DHT22;30333;52.192;8.834;2022-08-19T00:11:59;19.40;99.90
44627;DHT22;30333;52.192;8.834;2022-08-19T00:14:26;19.30;99.90
44627;DHT22;30333;52.192;8.834;2022-08-19T00:16:54;19.30;99.90
44627;DHT22;30333;52.192;8.834;2022-08-19T00:27:21;19.10;99.90
44627;DHT22;30333;52.192;8.834;2022-08-19T00:29:52;19.20;99.90
44627;DHT22;30333;52.192;8.834;2022-08-19T00:32:19;19.20;99.90
44627;DHT22;30333;52.192;8.834;2022-08-19T00:34:47;19.20;99.90
44627;DHT22;30333;52.192;8.834;2022-08-19T00:37:14;19.20;99.90
44627;DHT22;30333;52.192;8.834;2022-08-19T00:39:40;19.10;99.90
44627;DHT22;30333;52.192;8.834;2022-08-19T00:42:07;19.00;99.90
44627;DHT22;30333;52.192;8.834;2022-08-19T00:44:36;19.10;99.90
44627;DHT22;30333;52.192;8.834;2022-08-19T00:47:03;19.00;99.90
44627;DHT22;30333;52.192;8.834;2022-08-19T00:49:39;19.10;99.90
44627;DHT22;30333;52.192;8.834;2022-08-19T00:52:09;19.00;99.90
44627;DHT22;30333;52.192;8.834;2022-08-19T00:54:40;19.10;99.90
44627;DHT22;30333;52.192;8.834;2022-08-19T00:57:10;19.00;99.90
44627;DHT22;30333;52.192;8.834;2022-08-19T00:59:42;19.00;99.90
44627;DHT22;30333;52.192;8.834;2022-08-19T01:02:30;18.90;99.90
44627;DHT22;30333;52.192;8.834;2022-08-19T01:04:59;18.80;99.90
44627;DHT22;30333;52.192;8.834;2022-08-19T01:07:27;18.80;99.90
44627;DHT22;30333;52.192;8.834;2022-08-19T01:10:02;18.70;99.90
44627;DHT22;30333;52.192;8.834;2022-08-19T01:12:29;18.60;99.90
44627;DHT22;30333;52.192;8.834;2022-08-19T01:14:59;18.50;99.90
44627;DHT22;30333;52.192;8.834;2022-08-19T01:17:26;18.60;99.90
44627;DHT22;30333;52.192;8.834;2022-08-19T01:19:53;18.50;99.90
44627;DHT22;30333;52.192;8.834;2022-08-19T01:22:27;18.60;99.90
44627;DHT22;30333;52.192;8.834;2022-08-19T01:25:00;18.60;99.90
44627;DHT22;30333;52.192;8.834;2022-08-19T01:27:27;18.40;99.90
44627;DHT22;30333;52.192;8.834;2022-08-19T01:30:11;18.30;99.90
44627;DHT22;30333;52.192;8.834;2022-08-19T01:32:38;18.30;99.90
44627;DHT22;30333;52.192;8.834;2022-08-19T01:35:06;18.30;99.90
44627;DHT22;30333;52.192;8.834;2022-08-19T01:37:47;18.30;99.90
44627;DHT22;30333;52.192;8.834;2022-08-19T01:40:15;18.20;99.90
44627;DHT22;30333;52.192;8.834;2022-08-19T01:42:42;18.20;99.90
44627;DHT22;30333;52.192;8.834;2022-08-19T01:45:10;18.00;99.90
44627;DHT22;30333;52.192;8.834;2022-08-19T01:47:37;18.00;99.90
44627;DHT22;30333;52.192;8.834;2022-08-19T01:50:08;17.90;99.90
44627;DHT22;30333;52.192;8.834;2022-08-19T01:52:36;17.90;99.90
44627;DHT22;30333;52.192;8.834;2022-08-19T01:55:06;18.50;99.90
44627;DHT22;30333;52.192;8.834;2022-08-19T01:57:34;17.80;99.90
44627;DHT22;30333;52.192;8.834;2022-08-19T02:00:03;17.90;99.90
44627;DHT22;30333;52.192;8.834;2022-08-19T02:02:31;17.90;99.90
44627;DHT22;30333;52.192;8.834;2022-08-19T02:04:59;17.90;99.90
44627;DHT22;30333;52.192;8.834;2022-08-19T02:07:26;18.00;99.90
44627;DHT22;30333;52.192;8.834;2022-08-19T02:09:54;18.00;99.90
44627;DHT22;30333;52.192;8.834;2022-08-19T02:12:23;17.90;99.90
44627;DHT22;30333;52.192;8.834;2022-08-19T02:14:50;17.90;99.90
44627;DHT22;30333;52.192;8.834;2022-08-19T02:17:16;17.90;99.90
44627;DHT22;30333;52.192;8.834;2022-08-19T02:22:11;17.80;99.90
44627;DHT22;30333;52.192;8.834;2022-08-19T02:24:38;17.70;99.90
44627;DHT22;30333;52.192;8.834;2022-08-19T02:27:05;17.70;99.90
44627;DHT22;30333;52.192;8.834;2022-08-19T02:29:34;17.60;99.90
44627;DHT22;30333;52.192;8.834;2022-08-19T02:32:01;17.60;99.90
44627;DHT22;30333;52.192;8.834;2022-08-19T02:34:27;17.50;99.90
44627;DHT22;30333;52.192;8.834;2022-08-19T02:36:54;17.50;99.90
44627;DHT22;30333;52.192;8.834;2022-08-19T02:41:48;17.50;99.90
44627;DHT22;30333;52.192;8.834;2022-08-19T02:44:16;17.60;99.90
44627;DHT22;30333;52.192;8.834;2022-08-19T02:46:58;17.60;99.90
44627;DHT22;30333;52.192;8.834;2022-08-19T02:49:25;17.50;99.90
44627;DHT22;30333;52.192;8.834;2022-08-19T02:51:52;17.50;99.90
44627;DHT22;30333;52.192;8.834;2022-08-19T02:54:18;17.40;99.90
44627;DHT22;30333;52.192;8.834;2022-08-19T02:56:45;17.40;99.90
44627;DHT22;30333;52.192;8.834;2022-08-19T02:59:13;17.40;99.90
44627;DHT22;30333;52.192;8.834;2022-08-19T03:01:41;17.40;99.90
44627;DHT22;30333;52.192;8.834;2022-08-19T03:04:13;17.40;99.90
44627;DHT22;30333;52.192;8.834;2022-08-19T03:06:42;17.40;99.90
44627;DHT22;30333;52.192;8.834;2022-08-19T03:09:10;17.50;99.90
44627;DHT22;30333;52.192;8.834;2022-08-19T03:11:37;17.50;99.90
44627;DHT22;30333;52.192;8.834;2022-08-19T03:14:06;17.30;99.90
44627;DHT22;30333;52.192;8.834;2022-08-19T03:16:35;17.30;99.90
44627;DHT22;30333;52.192;8.834;2022-08-19T03:19:02;17.30;99.90
44627;DHT22;30333;52.192;8.834;2022-08-19T03:21:32;17.20;99.90
44627;DHT22;30333;52.192;8.834;2022-08-19T03:24:02;17.10;99.90
44627;DHT22;30333;52.192;8.834;2022-08-19T03:26:30;17.10;99.90
44627;DHT22;30333;52.192;8.834;2022-08-19T03:28:57;17.00;99.90
44627;DHT22;30333;52.192;8.834;2022-08-19T03:31:26;17.10;99.90
44627;DHT22;30333;52.192;8.834;2022-08-19T03:34:16;17.10;99.90
44627;DHT22;30333;52.192;8.834;2022-08-19T03:36:46;17.20;99.90
44627;DHT22;30333;52.192;8.834;2022-08-19T03:39:14;17.20;99.90
44627;DHT22;30333;52.192;8.834;2022-08-19T03:41:43;17.20;99.90
44627;DHT22;30333;52.192;8.834;2022-08-19T03:44:14;17.20;99.90
44627;DHT22;30333;52.192;8.834;2022-08-19T03:46:44;17.10;99.90
44627;DHT22;30333;52.192;8.834;2022-08-19T03:49:11;17.10;99.90
44627;DHT22;30333;52.192;8.834;2022-08-19T03:51:42;17.00;99.90
44627;DHT22;30333;52.192;8.834;2022-08-19T03:54:12;17.00;99.90
44627;DHT22;30333;52.192;8.834;2022-08-19T03:56:42;17.00;99.90
44627;DHT22;30333;52.192;8.834;2022-08-19T03:59:11;17.10;99.90
44627;DHT22;30333;52.192;8.834;2022-08-19T04:01:39;17.20;99.90
44627;DHT22;30333;52.192;8.834;2022-08-19T04:04:07;17.10;99.90
44627;DHT22;30333;52.192;8.834;2022-08-19T04:06:36;17.20;99.90
44627;DHT22;30333;52.192;8.834;2022-08-19T04:09:07;17.10;99.90
44627;DHT22;30333;52.192;8.834;2022-08-19T04:11:43;17.00;99.90
44627;DHT22;30333;52.192;8.834;2022-08-19T04:14:12;16.90;99.90
44627;DHT22;30333;52.192;8.834;2022-08-19T04:16:40;16.90;99.90
44627;DHT22;30333;52.192;8.834;2022-08-19T04:19:09;16.80;99.90
44627;DHT22;30333;52.192;8.834;2022-08-19T04:21:36;16.80;99.90
44627;DHT22;30333;52.192;8.834;2022-08-19T04:24:03;16.80;99.90
44627;DHT22;30333;52.192;8.834;2022-08-19T04:26:37;16.90;99.90
44627;DHT22;30333;52.192;8.834;2022-08-19T04:29:07;16.90;99.90
44627;DHT22;30333;52.192;8.834;2022-08-19T04:31:39;16.90;99.90
44627;DHT22;30333;52.192;8.834;2022-08-19T04:34:08;17.00;99.90
44627;DHT22;30333;52.192;8.834;2022-08-19T04:36:38;17.00;99.90
44627;DHT22;30333;52.192;8.834;2022-08-19T04:39:09;16.90;99.90
44627;DHT22;30333;52.192;8.834;2022-08-19T04:41:37;16.90;99.90
44627;DHT22;30333;52.192;8.834;2022-08-19T04:44:23;16.90;99.90
44627;DHT22;30333;52.192;8.834;2022-08-19T04:46:51;16.90;99.90
44627;DHT22;30333;52.192;8.834;2022-08-19T04:49:20;16.90;99.90
44627;DHT22;30333;52.192;8.834;2022-08-19T04:51:49;17.00;99.90
44627;DHT22;30333;52.192;8.834;2022-08-19T04:54:17;17.10;99.90
44627;DHT22;30333;52.192;8.834;2022-08-19T04:57:06;17.10;99.90
44627;DHT22;30333;52.192;8.834;2022-08-19T04:59:35;17.40;99.90
44627;DHT22;30333;52.192;8.834;2022-08-19T05:02:02;17.40;99.90
44627;DHT22;30333;52.192;8.834;2022-08-19T05:04:29;17.40;99.90
44627;DHT22;30333;52.192;8.834;2022-08-19T05:06:59;17.50;99.90
44627;DHT22;30333;52.192;8.834;2022-08-19T05:09:28;17.50;99.90
44627;DHT22;30333;52.192;8.834;2022-08-19T05:12:16;17.50;99.90
44627;DHT22;30333;52.192;8.834;2022-08-19T05:14:43;17.50;99.90
44627;DHT22;30333;52.192;8.834;2022-08-19T05:19:59;17.70;99.90
44627;DHT22;30333;52.192;8.834;2022-08-19T05:22:52;17.70;99.90
44627;DHT22;30333;52.192;8.834;2022-08-19T05:25:20;17.70;99.90
44627;DHT22;30333;52.192;8.834;2022-08-19T05:27:49;17.70;99.90
44627;DHT22;30333;52.192;8.834;2022-08-19T05:32:44;17.80;99.90
44627;DHT22;30333;52.192;8.834;2022-08-19T05:35:11;18.00;99.90
44627;DHT22;30333;52.192;8.834;2022-08-19T05:37:38;18.00;99.90
44627;DHT22;30333;52.192;8.834;2022-08-19T05:40:08;18.00;99.90
44627;DHT22;30333;52.192;8.834;2022-08-19T05:42:35;18.10;99.90
44627;DHT22;30333;52.192;8.834;2022-08-19T05:45:04;18.10;99.90
44627;DHT22;30333;52.192;8.834;2022-08-19T05:47:32;18.20;99.90
44627;DHT22;30333;52.192;8.834;2022-08-19T05:49:59;18.30;99.90
44627;DHT22;30333;52.192;8.834;2022-08-19T05:52:26;18.40;99.90
44627;DHT22;30333;52.192;8.834;2022-08-19T05:54:56;18.20;99.90
44627;DHT22;30333;52.192;8.834;2022-08-19T05:57:23;18.40;99.90
44627;DHT22;30333;52.192;8.834;2022-08-19T05:59:51;18.50;99.90
44627;DHT22;30333;52.192;8.834;2022-08-19T06:02:25;18.50;99.90
44627;DHT22;30333;52.192;8.834;2022-08-19T06:04:52;18.50;99.90
44627;DHT22;30333;52.192;8.834;2022-08-19T06:07:19;18.50;99.90
44627;DHT22;30333;52.192;8.834;2022-08-19T06:09:46;18.50;99.90
44627;DHT22;30333;52.192;8.834;2022-08-19T06:12:25;18.60;99.90
44627;DHT22;30333;52.192;8.834;2022-08-19T06:14:55;18.70;99.90
44627;DHT22;30333;52.192;8.834;2022-08-19T06:17:29;18.80;99.90
44627;DHT22;30333;52.192;8.834;2022-08-19T06:19:57;18.90;99.90
44627;DHT22;30333;52.192;8.834;2022-08-19T06:22:24;19.00;99.90
44627;DHT22;30333;52.192;8.834;2022-08-19T06:24:51;19.10;99.90
44627;DHT22;30333;52.192;8.834;2022-08-19T06:29:55;19.10;99.90
44627;DHT22;30333;52.192;8.834;2022-08-19T06:32:22;19.20;99.90
44627;DHT22;30333;52.192;8.834;2022-08-19T06:34:50;19.20;99.90
44627;DHT22;30333;52.192;8.834;2022-08-19T06:39:44;19.10;99.90
44627;DHT22;30333;52.192;8.834;2022-08-19T06:42:12;19.10;99.90
44627;DHT22;30333;52.192;8.834;2022-08-19T06:44:42;19.10;99.90
44627;DHT22;30333;52.192;8.834;2022-08-19T06:47:17;19.00;99.90
44627;DHT22;30333;52.192;8.834;2022-08-19T06:49:55;18.90;99.90
44627;DHT22;30333;52.192;8.834;2022-08-19T06:52:29;19.00;99.90
44627;DHT22;30333;52.192;8.834;2022-08-19T06:54:56;19.10;99.90
44627;DHT22;30333;52.192;8.834;2022-08-19T06:57:26;19.10;99.90
44627;DHT22;30333;52.192;8.834;2022-08-19T06:59:53;19.10;99.90
44627;DHT22;30333;52.192;8.834;2022-08-19T07:02:20;19.20;99.90
44627;DHT22;30333;52.192;8.834;2022-08-19T07:04:47;19.30;99.90
44627;DHT22;30333;52.192;8.834;2022-08-19T07:07:20;19.30;99.90
44627;DHT22;30333;52.192;8.834;2022-08-19T07:09:49;19.40;99.90
44627;DHT22;30333;52.192;8.834;2022-08-19T07:12:28;19.50;99.90
44627;DHT22;30333;52.192;8.834;2022-08-19T07:14:57;19.40;99.90
44627;DHT22;30333;52.192;8.834;2022-08-19T07:17:25;19.30;99.90
44627;DHT22;30333;52.192;8.834;2022-08-19T07:22:21;19.40;99.90
44627;DHT22;30333;52.192;8.834;2022-08-19T07:24:51;19.40;99.90
44627;DHT22;30333;52.192;8.834;2022-08-19T07:27:19;19.50;99.90
44627;DHT22;30333;52.192;8.834;2022-08-19T07:29:51;19.60;99.90
44627;DHT22;30333;52.192;8.834;2022-08-19T07:32:23;19.50;99.90
44627;DHT22;30333;52.192;8.834;2022-08-19T07:34:52;19.60;99.90
44627;DHT22;30333;52.192;8.834;2022-08-19T07:37:20;19.60;99.90
44627;DHT22;30333;52.192;8.834;2022-08-19T07:39:47;19.70;99.90
44627;DHT22;30333;52.192;8.834;2022-08-19T07:42:14;19.70;99.90
44627;DHT22;30333;52.192;8.834;2022-08-19T07:44:42;19.80;99.90
44627;DHT22;30333;52.192;8.834;2022-08-19T07:47:16;19.90;99.90
44627;DHT22;30333;52.192;8.834;2022-08-19T07:50:09;19.80;99.90
44627;DHT22;30333;52.192;8.834;2022-08-19T07:52:39;19.90;99.90
44627;DHT22;30333;52.192;8.834;2022-08-19T07:55:07;19.90;99.90
44627;DHT22;30333;52.192;8.834;2022-08-19T07:57:54;20.00;99.90
44627;DHT22;30333;52.192;8.834;2022-08-19T08:00:21;20.10;99.90
44627;DHT22;30333;52.192;8.834;2022-08-19T08:02:50;20.20;99.90
44627;DHT22;30333;52.192;8.834;2022-08-19T08:05:17;20.30;99.90
44627;DHT22;30333;52.192;8.834;2022-08-19T08:08:10;20.40;99.90
44627;DHT22;30333;52.192;8.834;2022-08-19T08:10:55;20.40;99.90
44627;DHT22;30333;52.192;8.834;2022-08-19T08:13:23;20.50;99.90
44627;DHT22;30333;52.192;8.834;2022-08-19T08:15:50;20.60;99.90
44627;DHT22;30333;52.192;8.834;2022-08-19T08:18:19;20.60;99.90
44627;DHT22;30333;52.192;8.834;2022-08-19T08:20:47;20.70;99.90
44627;DHT22;30333;52.192;8.834;2022-08-19T08:23:15;20.60;99.90
44627;DHT22;30333;52.192;8.834;2022-08-19T08:25:57;20.70;99.90
44627;DHT22;30333;52.192;8.834;2022-08-19T08:28:25;20.90;99.90
44627;DHT22;30333;52.192;8.834;2022-08-19T08:30:56;21.10;99.90
44627;DHT22;30333;52.192;8.834;2022-08-19T08:33:25;21.10;99.90
44627;DHT22;30333;52.192;8.834;2022-08-19T08:36:00;21.10;99.90
44627;DHT22;30333;52.192;8.834;2022-08-19T08:38:31;21.10;99.90
44627;DHT22;30333;52.192;8.834;2022-08-19T08:41:11;21.00;99.90
44627;DHT22;30333;52.192;8.834;2022-08-19T08:43:47;21.00;99.90
44627;DHT22;30333;52.192;8.834;2022-08-19T08:46:19;21.20;99.90
44627;DHT22;30333;52.192;8.834;2022-08-19T08:49:02;21.20;99.90
44627;DHT22;30333;52.192;8.834;2022-08-19T08:51:37;20.00;99.90
44627;DHT22;30333;52.192;8.834;2022-08-19T08:54:12;21.30;99.90
44627;DHT22;30333;52.192;8.834;2022-08-19T08:56:40;21.30;99.90
44627;DHT22;30333;52.192;8.834;2022-08-19T08:59:16;21.20;99.90
44627;DHT22;30333;52.192;8.834;2022-08-19T09:01:45;21.20;99.90
44627;DHT22;30333;52.192;8.834;2022-08-19T09:04:12;21.30;99.90
44627;DHT22;30333;52.192;8.834;2022-08-19T09:06:47;21.30;99.90
44627;DHT22;30333;52.192;8.834;2022-08-19T09:09:22;21.40;99.90
44627;DHT22;30333;52.192;8.834;2022-08-19T09:12:04;21.50;99.90
44627;DHT22;30333;52.192;8.834;2022-08-19T09:14:41;21.70;99.90
44627;DHT22;30333;52.192;8.834;2022-08-19T09:17:20;21.70;99.90
44627;DHT22;30333;52.192;8.834;2022-08-19T09:19:54;21.70;99.90
44627;DHT22;30333;52.192;8.834;2022-08-19T09:22:22;21.80;99.90
44627;DHT22;30333;52.192;8.834;2022-08-19T09:24:54;21.70;99.90
44627;DHT22;30333;52.192;8.834;2022-08-19T09:27:23;21.80;99.90
44627;DHT22;30333;52.192;8.834;2022-08-19T09:30:16;21.90;99.90
44627;DHT22;30333;52.192;8.834;2022-08-19T09:32:44;22.00;99.90
44627;DHT22;30333;52.192;8.834;2022-08-19T09:35:12;22.10;99.60
44627;DHT22;30333;52.192;8.834;2022-08-19T09:37:39;22.10;99.40
44627;DHT22;30333;52.192;8.834;2022-08-19T09:40:09;22.20;99.30
44627;DHT22;30333;52.192;8.834;2022-08-19T09:42:37;22.30;99.50
44627;DHT22;30333;52.192;8.834;2022-08-19T09:45:17;22.30;99.10
44627;DHT22;30333;52.192;8.834;2022-08-19T09:47:44;22.40;99.00
44627;DHT22;30333;52.192;8.834;2022-08-19T09:50:12;22.40;98.70
44627;DHT22;30333;52.192;8.834;2022-08-19T09:52:42;22.40;98.50
44627;DHT22;30333;52.192;8.834;2022-08-19T09:55:22;22.40;97.70
44627;DHT22;30333;52.192;8.834;2022-08-19T09:57:49;22.40;97.90
44627;DHT22;30333;52.192;8.834;2022-08-19T10:00:16;22.50;98.20
44627;DHT22;30333;52.192;8.834;2022-08-19T10:02:43;22.50;98.70
44627;DHT22;30333;52.192;8.834;2022-08-19T10:05:11;22.70;97.60
44627;DHT22;30333;52.192;8.834;2022-08-19T10:07:56;22.80;97.80
44627;DHT22;30333;52.192;8.834;2022-08-19T10:10:25;22.90;96.90
44627;DHT22;30333;52.192;8.834;2022-08-19T10:12:52;22.80;97.30
44627;DHT22;30333;52.192;8.834;2022-08-19T10:15:19;22.90;96.40
44627;DHT22;30333;52.192;8.834;2022-08-19T10:17:55;22.90;95.80
44627;DHT22;30333;52.192;8.834;2022-08-19T10:20:24;22.90;95.90
44627;DHT22;30333;52.192;8.834;2022-08-19T10:22:51;23.00;95.90
44627;DHT22;30333;52.192;8.834;2022-08-19T10:25:19;23.00;96.70
44627;DHT22;30333;52.192;8.834;2022-08-19T10:27:47;23.10;96.20
44627;DHT22;30333;52.192;8.834;2022-08-19T10:30:17;23.20;95.50
44627;DHT22;30333;52.192;8.834;2022-08-19T10:32:45;23.60;95.70
44627;DHT22;30333;52.192;8.834;2022-08-19T10:35:13;23.20;95.70
44627;DHT22;30333;52.192;8.834;2022-08-19T10:37:47;23.30;96.10
44627;DHT22;30333;52.192;8.834;2022-08-19T10:40:23;23.40;95.80
44627;DHT22;30333;52.192;8.834;2022-08-19T10:42:51;23.30;95.00
44627;DHT22;30333;52.192;8.834;2022-08-19T10:45:18;23.20;94.50
44627;DHT22;30333;52.192;8.834;2022-08-19T10:47:49;23.20;93.50
44627;DHT22;30333;52.192;8.834;2022-08-19T10:50:16;23.10;93.90
44627;DHT22;30333;52.192;8.834;2022-08-19T10:53:04;23.30;94.00
44627;DHT22;30333;52.192;8.834;2022-08-19T10:55:35;23.40;94.00
44627;DHT22;30333;52.192;8.834;2022-08-19T10:58:22;23.40;94.10
44627;DHT22;30333;52.192;8.834;2022-08-19T11:00:53;23.30;94.80
44627;DHT22;30333;52.192;8.834;2022-08-19T11:03:21;23.40;94.90
44627;DHT22;30333;52.192;8.834;2022-08-19T11:05:57;23.50;95.40
44627;DHT22;30333;52.192;8.834;2022-08-19T11:08:24;23.50;93.50
44627;DHT22;30333;52.192;8.834;2022-08-19T11:10:54;23.60;93.50
44627;DHT22;30333;52.192;8.834;2022-08-19T11:13:28;23.60;93.70
44627;DHT22;30333;52.192;8.834;2022-08-19T11:15:57;23.70;93.70
44627;DHT22;30333;52.192;8.834;2022-08-19T11:18:27;23.70;93.20
44627;DHT22;30333;52.192;8.834;2022-08-19T11:20:54;23.60;93.00
44627;DHT22;30333;52.192;8.834;2022-08-19T11:23:21;23.60;92.80
44627;DHT22;30333;52.192;8.834;2022-08-19T11:25:47;23.80;92.70
44627;DHT22;30333;52.192;8.834;2022-08-19T11:28:15;23.90;92.10
44627;DHT22;30333;52.192;8.834;2022-08-19T11:30:43;24.00;92.10
44627;DHT22;30333;52.192;8.834;2022-08-19T11:33:10;24.10;92.40
44627;DHT22;30333;52.192;8.834;2022-08-19T11:35:39;24.20;92.40
44627;DHT22;30333;52.192;8.834;2022-08-19T11:38:06;24.30;92.20
44627;DHT22;30333;52.192;8.834;2022-08-19T11:40:35;24.30;92.70
44627;DHT22;30333;52.192;8.834;2022-08-19T11:43:02;24.30;92.50
44627;DHT22;30333;52.192;8.834;2022-08-19T11:45:29;24.30;92.30
44627;DHT22;30333;52.192;8.834;2022-08-19T11:47:58;24.40;92.50
44627;DHT22;30333;52.192;8.834;2022-08-19T11:50:25;24.40;92.90
44627;DHT22;30333;52.192;8.834;2022-08-19T11:52:54;24.60;93.10
44627;DHT22;30333;52.192;8.834;2022-08-19T11:55:21;24.60;91.90
44627;DHT22;30333;52.192;8.834;2022-08-19T11:57:48;24.60;92.10
44627;DHT22;30333;52.192;8.834;2022-08-19T12:00:15;24.50;92.60
44627;DHT22;30333;52.192;8.834;2022-08-19T12:02:42;24.60;92.30
44627;DHT22;30333;52.192;8.834;2022-08-19T12:05:10;24.70;92.20
44627;DHT22;30333;52.192;8.834;2022-08-19T12:07:39;26.40;92.50
44627;DHT22;30333;52.192;8.834;2022-08-19T12:10:06;24.70;91.50
44627;DHT22;30333;52.192;8.834;2022-08-19T12:12:34;24.70;91.10
44627;DHT22;30333;52.192;8.834;2022-08-19T12:15:01;24.80;91.20
44627;DHT22;30333;52.192;8.834;2022-08-19T12:17:28;24.90;91.20
44627;DHT22;30333;52.192;8.834;2022-08-19T12:19:57;25.00;91.70
44627;DHT22;30333;52.192;8.834;2022-08-19T12:22:25;25.00;90.30
44627;DHT22;30333;52.192;8.834;2022-08-19T12:24:52;25.50;91.10
44627;DHT22;30333;52.192;8.834;2022-08-19T12:27:20;25.00;90.60
44627;DHT22;30333;52.192;8.834;2022-08-19T12:48:52;24.90;85.90
44627;DHT22;30333;52.192;8.834;2022-08-19T12:51:21;25.20;85.90
44627;DHT22;30333;52.192;8.834;2022-08-19T12:53:48;25.00;87.30
44627;DHT22;30333;52.192;8.834;2022-08-19T12:56:16;25.10;86.50
44627;DHT22;30333;52.192;8.834;2022-08-19T12:58:49;25.00;87.00
44627;DHT22;30333;52.192;8.834;2022-08-19T13:03:56;25.10;86.40
44627;DHT22;30333;52.192;8.834;2022-08-19T13:06:22;25.30;86.50
44627;DHT22;30333;52.192;8.834;2022-08-19T13:08:49;25.50;84.60
44627;DHT22;30333;52.192;8.834;2022-08-19T13:11:18;25.50;84.10
44627;DHT22;30333;52.192;8.834;2022-08-19T13:13:48;26.70;85.90
44627;DHT22;30333;52.192;8.834;2022-08-19T13:16:18;25.50;86.60
44627;DHT22;30333;52.192;8.834;2022-08-19T13:18:46;25.50;85.10
44627;DHT22;30333;52.192;8.834;2022-08-19T13:21:15;25.50;86.10
44627;DHT22;30333;52.192;8.834;2022-08-19T13:23:42;25.50;84.80
44627;DHT22;30333;52.192;8.834;2022-08-19T13:26:10;25.50;85.20
44627;DHT22;30333;52.192;8.834;2022-08-19T13:28:39;27.10;86.50
44627;DHT22;30333;52.192;8.834;2022-08-19T13:31:27;25.60;85.70
44627;DHT22;30333;52.192;8.834;2022-08-19T13:34:13;25.60;85.80
44627;DHT22;30333;52.192;8.834;2022-08-19T13:36:42;25.70;84.90
44627;DHT22;30333;52.192;8.834;2022-08-19T13:39:09;25.70;84.60
44627;DHT22;30333;52.192;8.834;2022-08-19T13:41:36;25.80;85.10
44627;DHT22;30333;52.192;8.834;2022-08-19T13:44:03;25.80;83.90
44627;DHT22;30333;52.192;8.834;2022-08-19T13:46:30;25.80;84.30
44627;DHT22;30333;52.192;8.834;2022-08-19T13:48:57;25.90;84.40
44627;DHT22;30333;52.192;8.834;2022-08-19T13:51:24;25.80;85.20
44627;DHT22;30333;52.192;8.834;2022-08-19T13:53:52;25.90;84.10
44627;DHT22;30333;52.192;8.834;2022-08-19T13:56:20;26.10;84.00
44627;DHT22;30333;52.192;8.834;2022-08-19T13:58:51;26.20;83.80
44627;DHT22;30333;52.192;8.834;2022-08-19T14:01:21;26.20;83.40
44627;DHT22;30333;52.192;8.834;2022-08-19T14:03:50;26.20;85.30
44627;DHT22;30333;52.192;8.834;2022-08-19T14:06:17;26.40;84.50
44627;DHT22;30333;52.192;8.834;2022-08-19T14:08:45;26.50;84.10
44627;DHT22;30333;52.192;8.834;2022-08-19T14:11:13;26.60;83.10
44627;DHT22;30333;52.192;8.834;2022-08-19T14:16:09;27.20;82.70
44627;DHT22;30333;52.192;8.834;2022-08-19T14:18:36;27.50;82.20
44627;DHT22;30333;52.192;8.834;2022-08-19T14:21:04;27.60;82.40
44627;DHT22;30333;52.192;8.834;2022-08-19T14:23:31;27.80;82.00
44627;DHT22;30333;52.192;8.834;2022-08-19T14:26:06;28.00;81.60
44627;DHT22;30333;52.192;8.834;2022-08-19T14:28:35;28.30;80.50
44627;DHT22;30333;52.192;8.834;2022-08-19T14:31:02;29.80;81.50
44627;DHT22;30333;52.192;8.834;2022-08-19T14:33:28;28.80;81.60
44627;DHT22;30333;52.192;8.834;2022-08-19T14:35:56;29.00;81.20
44627;DHT22;30333;52.192;8.834;2022-08-19T14:38:26;29.20;80.20
44627;DHT22;30333;52.192;8.834;2022-08-19T14:41:07;29.20;79.70
44627;DHT22;30333;52.192;8.834;2022-08-19T14:43:36;29.60;80.10
44627;DHT22;30333;52.192;8.834;2022-08-19T14:48:30;28.00;80.90
44627;DHT22;30333;52.192;8.834;2022-08-19T14:50:57;28.10;81.60
44627;DHT22;30333;52.192;8.834;2022-08-19T14:53:24;28.30;80.30
44627;DHT22;30333;52.192;8.834;2022-08-19T14:55:50;28.60;80.90
44627;DHT22;30333;52.192;8.834;2022-08-19T14:58:17;28.50;79.90
44627;DHT22;30333;52.192;8.834;2022-08-19T15:00:58;29.60;80.80
44627;DHT22;30333;52.192;8.834;2022-08-19T15:03:25;28.00;80.90
44627;DHT22;30333;52.192;8.834;2022-08-19T15:05:52;27.80;82.10
44627;DHT22;30333;52.192;8.834;2022-08-19T15:08:19;27.90;81.80
44627;DHT22;30333;52.192;8.834;2022-08-19T15:10:51;27.50;81.40
44627;DHT22;30333;52.192;8.834;2022-08-19T15:13:18;27.60;81.90
44627;DHT22;30333;52.192;8.834;2022-08-19T15:15:45;27.30;82.40
44627;DHT22;30333;52.192;8.834;2022-08-19T15:18:15;27.10;82.50
44627;DHT22;30333;52.192;8.834;2022-08-19T15:20:42;27.00;83.70
44627;DHT22;30333;52.192;8.834;2022-08-19T15:23:12;26.90;82.90
44627;DHT22;30333;52.192;8.834;2022-08-19T15:28:08;26.80;83.10
44627;DHT22;30333;52.192;8.834;2022-08-19T15:30:38;26.80;84.20
44627;DHT22;30333;52.192;8.834;2022-08-19T15:33:06;26.70;84.20
44627;DHT22;30333;52.192;8.834;2022-08-19T15:35:34;26.80;84.10
44627;DHT22;30333;52.192;8.834;2022-08-19T15:38:01;26.80;84.60
44627;DHT22;30333;52.192;8.834;2022-08-19T15:40:28;27.00;84.90
44627;DHT22;30333;52.192;8.834;2022-08-19T15:42:56;27.20;84.40
44627;DHT22;30333;52.192;8.834;2022-08-19T15:45:22;27.10;83.00
44627;DHT22;30333;52.192;8.834;2022-08-19T15:47:58;27.30;84.50
44627;DHT22;30333;52.192;8.834;2022-08-19T15:50:25;27.40;83.20
44627;DHT22;30333;52.192;8.834;2022-08-19T15:52:55;27.40;82.50
44627;DHT22;30333;52.192;8.834;2022-08-19T15:55:25;27.20;82.60
44627;DHT22;30333;52.192;8.834;2022-08-19T15:58:00;29.00;84.00
44627;DHT22;30333;52.192;8.834;2022-08-19T16:00:55;27.20;82.30
44627;DHT22;30333;52.192;8.834;2022-08-19T16:03:41;27.10;83.20
44627;DHT22;30333;52.192;8.834;2022-08-19T16:06:28;27.00;82.80
44627;DHT22;30333;52.192;8.834;2022-08-19T16:08:59;27.20;83.10
44627;DHT22;30333;52.192;8.834;2022-08-19T16:11:31;27.30;83.40
44627;DHT22;30333;52.192;8.834;2022-08-19T16:14:05;27.20;82.90
44627;DHT22;30333;52.192;8.834;2022-08-19T16:16:36;27.00;84.20
44627;DHT22;30333;52.192;8.834;2022-08-19T16:19:05;27.00;82.80
44627;DHT22;30333;52.192;8.834;2022-08-19T16:21:38;27.10;83.60
44627;DHT22;30333;52.192;8.834;2022-08-19T16:24:11;27.10;83.30
44627;DHT22;30333;52.192;8.834;2022-08-19T16:26:40;27.10;83.80
44627;DHT22;30333;52.192;8.834;2022-08-19T16:29:07;26.90;83.30
44627;DHT22;30333;52.192;8.834;2022-08-19T16:31:41;26.80;84.50
44627;DHT22;30333;52.192;8.834;2022-08-19T16:34:09;26.90;84.30
44627;DHT22;30333;52.192;8.834;2022-08-19T16:39:08;27.00;83.30
44627;DHT22;30333;52.192;8.834;2022-08-19T16:41:35;27.10;84.30
44627;DHT22;30333;52.192;8.834;2022-08-19T16:44:03;27.10;84.20
44627;DHT22;30333;52.192;8.834;2022-08-19T16:48:58;26.90;82.40